MGGT

La Aurora Airport

Guatemala City, Guatemala
MGGT 230500Z 2306/2406 36010KT CAVOK TX23/2320Z TN14/2312Z BECMG 2312/2314 SCT014 BECMG 2317/2319 18010KT FEW018 TEMPO 2320/2324 SCT020 BECMG 2404/2406 36010KT SCT014
Issued Valid From Valid To
Jan-23 @ 05:00 UTC
(3 hours ago)
Jan-23 @ 06:00 UTC
(2 hours ago)
Jan-24 @ 06:00 UTC
(in 22 hours)
Jan-23 @ 06:00 to Jan-23 @ 12:00
MGGT 230500Z 2306/2406 36010KT CAVOK TX23/2320Z TN14/2312Z
Wind Visibility Clouds
360° at 10 knots 10,000+ meters
  • No significant clouds
Becoming Jan-23 @ 12:00 to Jan-23 @ 17:00
BECMG 2312/2314 SCT014
Wind Visibility Clouds
360° at 10 knots 10,000+ meters
  • Scattered at 1,400' AGL
Becoming Jan-23 @ 17:00 to Jan-24 @ 04:00
BECMG 2317/2319 18010KT FEW018
Wind Visibility Clouds
180° at 10 knots 10,000+ meters
  • Few at 1,800' AGL
Temporary Jan-23 @ 20:00 to Jan-24 @ 00:00
TEMPO 2320/2324 SCT020
Clouds
  • Scattered at 2,000' AGL
Becoming Jan-24 @ 04:00 to Jan-24 @ 06:00
BECMG 2404/2406 36010KT SCT014
Wind Visibility Clouds
360° at 10 knots 10,000+ meters
  • Scattered at 1,400' AGL
MGGT 230500Z 2306/2406 36010KT CAVOK TX23/2320Z TN14/2312Z BECMG 2312/2314 SCT014 BECMG 2317/2319 18010KT FEW018 TEMPO 2320/2324 SCT020 BECMG 2404/2406 36010KT SCT014
Issued Jan-23 @ 05:00 UTC
(3 hours ago)
Valid From Jan-23 @ 06:00 UTC
(2 hours ago)
Valid To Jan-24 @ 06:00 UTC
(in 22 hours)
Jan-23 @ 06:00 - Jan-23 @ 12:00
Wind Visibility
360° at 10 knots 10,000+ meters
Clouds
  • No significant clouds
Becoming Jan-23 @ 12:00 - Jan-23 @ 17:00
Wind Visibility
360° at 10 knots 10,000+ meters
Clouds
  • Scattered at 1,400' AGL
Becoming Jan-23 @ 17:00 - Jan-24 @ 04:00
Wind Visibility
180° at 10 knots 10,000+ meters
Clouds
  • Few at 1,800' AGL
Temporary Jan-23 @ 20:00 - Jan-24 @ 00:00
Clouds
  • Scattered at 2,000' AGL
Becoming Jan-24 @ 04:00 - Jan-24 @ 06:00
Wind Visibility
360° at 10 knots 10,000+ meters
Clouds
  • Scattered at 1,400' AGL